createdAt,value
2018-06-18T00:00:50.375Z,0.00
2018-06-18T00:01:50.330Z,0.00
2018-06-18T00:02:50.290Z,0.00
2018-06-18T00:03:50.245Z,0.00
2018-06-18T00:04:50.202Z,0.00
2018-06-18T00:05:50.160Z,0.00
2018-06-18T00:06:50.117Z,0.00
2018-06-18T00:07:50.075Z,0.00
2018-06-18T00:08:50.032Z,0.00
2018-06-18T00:09:49.989Z,0.00
2018-06-18T00:10:49.947Z,0.00
2018-06-18T00:11:49.904Z,0.00
2018-06-18T00:12:49.861Z,0.00
2018-06-18T00:13:49.818Z,0.00
2018-06-18T00:14:49.776Z,0.00
2018-06-18T00:15:49.734Z,0.00
2018-06-18T00:16:49.690Z,0.00
2018-06-18T00:17:49.648Z,0.00
2018-06-18T00:18:49.607Z,0.00
2018-06-18T00:19:49.564Z,0.00
2018-06-18T00:20:49.520Z,0.00
2018-06-18T00:21:49.481Z,0.00
2018-06-18T00:22:49.434Z,0.00
2018-06-18T00:23:49.393Z,0.00
2018-06-18T00:24:49.351Z,0.00
2018-06-18T00:25:49.308Z,0.00
2018-06-18T00:26:49.264Z,0.00
2018-06-18T00:27:49.221Z,0.00
2018-06-18T00:28:49.177Z,0.00
2018-06-18T00:29:49.135Z,0.00
2018-06-18T00:30:49.092Z,0.00
2018-06-18T00:31:49.050Z,0.00
2018-06-18T00:32:49.007Z,0.00
2018-06-18T00:33:48.964Z,0.00
2018-06-18T00:34:48.922Z,0.00
2018-06-18T00:35:48.881Z,0.00
2018-06-18T00:36:48.836Z,0.00
2018-06-18T00:37:48.793Z,0.00
2018-06-18T00:38:48.750Z,0.00
2018-06-18T00:39:48.708Z,0.00
2018-06-18T00:40:48.664Z,0.00
2018-06-18T00:41:48.620Z,0.00
2018-06-18T00:42:48.579Z,0.00
2018-06-18T00:43:48.536Z,0.00
2018-06-18T00:44:48.493Z,0.00
2018-06-18T00:45:48.450Z,0.00
2018-06-18T00:46:48.407Z,0.00
2018-06-18T00:47:48.368Z,0.00
2018-06-18T00:48:48.321Z,0.00
2018-06-18T00:49:48.279Z,0.00
2018-06-18T00:50:48.237Z,0.00
2018-06-18T00:51:48.194Z,0.00
2018-06-18T00:52:48.150Z,0.00
2018-06-18T00:53:48.107Z,0.00
2018-06-18T00:54:48.065Z,0.00
2018-06-18T00:55:48.022Z,0.00
2018-06-18T00:56:47.978Z,0.00
2018-06-18T00:57:47.937Z,0.00
2018-06-18T00:58:47.892Z,0.00
2018-06-18T00:59:47.850Z,0.00
2018-06-18T01:00:47.806Z,0.00
2018-06-18T01:01:47.764Z,0.00
2018-06-18T01:02:47.721Z,0.00
2018-06-18T01:03:47.686Z,0.00
2018-06-18T01:04:47.634Z,0.00
2018-06-18T01:05:47.593Z,0.00
2018-06-18T01:06:47.549Z,0.00
2018-06-18T01:07:47.506Z,0.00
2018-06-18T01:08:47.470Z,0.00
2018-06-18T01:09:47.421Z,0.00
2018-06-18T01:10:47.377Z,0.00
2018-06-18T01:11:47.335Z,0.00
2018-06-18T01:12:47.290Z,0.00
2018-06-18T01:13:47.248Z,0.00
2018-06-18T01:14:47.205Z,0.00
2018-06-18T01:15:47.162Z,0.00
2018-06-18T01:16:47.119Z,0.00
2018-06-18T01:17:47.075Z,0.00
2018-06-18T01:18:47.036Z,0.00
2018-06-18T01:19:46.990Z,0.00
2018-06-18T01:20:46.947Z,0.00
2018-06-18T01:21:46.902Z,0.00
2018-06-18T01:22:46.861Z,0.00
2018-06-18T01:23:46.818Z,0.00
2018-06-18T01:24:46.774Z,0.00
2018-06-18T01:25:46.731Z,0.00
2018-06-18T01:26:46.688Z,0.00
2018-06-18T01:27:46.648Z,0.00
2018-06-18T01:28:46.602Z,0.00
2018-06-18T01:29:46.559Z,0.00
2018-06-18T01:30:46.516Z,0.00
2018-06-18T01:31:46.473Z,0.00
2018-06-18T01:32:46.430Z,0.00
2018-06-18T01:33:46.391Z,0.00
2018-06-18T01:34:46.344Z,0.00
2018-06-18T01:35:46.301Z,0.00
2018-06-18T01:36:46.258Z,0.00
2018-06-18T01:37:46.215Z,0.00
2018-06-18T01:38:46.172Z,0.00
2018-06-18T01:39:46.129Z,0.00
2018-06-18T01:40:46.085Z,0.00
2018-06-18T01:41:46.043Z,0.00
2018-06-18T01:42:46.000Z,0.00
2018-06-18T01:43:45.957Z,0.00
2018-06-18T01:44:45.913Z,0.00
2018-06-18T01:45:45.871Z,0.00
2018-06-18T01:46:45.830Z,0.00
2018-06-18T01:47:45.787Z,0.00
2018-06-18T01:48:45.741Z,0.00
2018-06-18T01:49:45.698Z,0.00
2018-06-18T01:50:45.655Z,0.00
2018-06-18T01:51:45.612Z,0.00
2018-06-18T01:52:45.569Z,0.00
2018-06-18T01:53:45.526Z,0.00
2018-06-18T01:54:45.483Z,0.00
2018-06-18T01:55:45.449Z,0.00
2018-06-18T01:56:45.397Z,0.00
2018-06-18T01:57:45.355Z,0.00
2018-06-18T01:58:45.311Z,0.00
2018-06-18T01:59:45.268Z,0.00
2018-06-18T02:00:45.225Z,0.00
2018-06-18T02:01:45.181Z,0.00
2018-06-18T02:02:45.138Z,0.00
2018-06-18T02:03:45.099Z,0.00
2018-06-18T02:04:45.053Z,0.00
2018-06-18T02:05:45.010Z,0.00
2018-06-18T02:06:44.966Z,0.00
2018-06-18T02:07:44.925Z,0.00
2018-06-18T02:08:44.879Z,0.00
2018-06-18T02:09:44.836Z,0.00
2018-06-18T02:10:44.794Z,0.00
2018-06-18T02:11:44.751Z,0.00
2018-06-18T02:12:44.707Z,0.00
2018-06-18T02:13:44.665Z,0.00
2018-06-18T02:14:44.621Z,0.00
2018-06-18T02:15:44.583Z,0.00
2018-06-18T02:16:44.536Z,0.00
2018-06-18T02:17:44.493Z,0.00
2018-06-18T02:18:44.452Z,0.00
2018-06-18T02:19:44.407Z,0.00
2018-06-18T02:20:44.363Z,0.00
2018-06-18T02:21:44.322Z,0.00
2018-06-18T02:22:44.277Z,0.00
2018-06-18T02:23:44.234Z,0.00
2018-06-18T02:24:44.192Z,0.00
2018-06-18T02:25:44.148Z,0.00
2018-06-18T02:26:44.105Z,0.00
2018-06-18T02:27:44.062Z,0.00
2018-06-18T02:28:44.019Z,0.00
2018-06-18T02:29:43.976Z,0.00
2018-06-18T02:30:43.933Z,0.00
2018-06-18T02:31:43.902Z,0.00
2018-06-18T02:32:43.848Z,0.00
2018-06-18T02:33:43.806Z,0.00
2018-06-18T02:34:43.761Z,0.00
2018-06-18T02:35:43.718Z,0.00
2018-06-18T02:36:43.674Z,0.00
2018-06-18T02:37:43.631Z,0.00
2018-06-18T02:38:43.589Z,0.00
2018-06-18T02:39:43.547Z,0.00
2018-06-18T02:40:43.507Z,0.00
2018-06-18T02:41:43.459Z,0.00
2018-06-18T02:42:43.415Z,0.00
2018-06-18T02:43:43.373Z,0.00
2018-06-18T02:44:43.329Z,0.00
2018-06-18T02:45:43.288Z,0.00
2018-06-18T02:46:43.243Z,0.00
2018-06-18T02:47:43.200Z,0.00
2018-06-18T02:48:43.157Z,0.00
2018-06-18T02:49:43.113Z,0.00
2018-06-18T02:50:43.071Z,0.00
2018-06-18T02:51:43.027Z,0.00
2018-06-18T02:52:42.983Z,0.00
2018-06-18T02:53:42.940Z,0.00
2018-06-18T02:54:42.897Z,0.00
2018-06-18T02:55:42.855Z,0.00
2018-06-18T02:56:42.810Z,0.00
2018-06-18T02:57:42.768Z,0.00
2018-06-18T02:58:42.725Z,0.00
2018-06-18T02:59:42.682Z,0.00
2018-06-18T03:00:42.637Z,0.00
2018-06-18T03:01:42.594Z,0.00
2018-06-18T03:02:42.553Z,0.00
2018-06-18T03:03:42.511Z,0.00
2018-06-18T03:04:42.464Z,0.00
2018-06-18T03:05:42.421Z,0.00
2018-06-18T03:06:42.384Z,0.00
2018-06-18T03:07:42.334Z,0.00
2018-06-18T03:08:42.293Z,0.00
2018-06-18T03:09:42.247Z,0.00
2018-06-18T03:10:42.209Z,0.00
2018-06-18T03:11:42.162Z,0.00
2018-06-18T03:12:42.117Z,0.00
2018-06-18T03:13:42.074Z,0.00
2018-06-18T03:14:42.031Z,0.00
2018-06-18T03:15:41.988Z,0.00
2018-06-18T03:16:41.944Z,0.00
2018-06-18T03:17:41.901Z,0.00
2018-06-18T03:18:41.858Z,0.00
2018-06-18T03:19:41.814Z,0.00
2018-06-18T03:20:41.771Z,0.00
2018-06-18T03:21:41.728Z,0.00
2018-06-18T03:22:41.686Z,0.00
2018-06-18T03:23:41.641Z,0.00
2018-06-18T03:24:41.598Z,0.00
2018-06-18T03:25:41.554Z,0.00
2018-06-18T03:26:41.512Z,0.00
2018-06-18T03:27:41.468Z,0.00
2018-06-18T03:28:41.427Z,0.00
2018-06-18T03:29:41.382Z,0.00
2018-06-18T03:30:41.340Z,0.00
2018-06-18T03:31:41.299Z,0.00
2018-06-18T03:32:41.250Z,0.00
2018-06-18T03:33:41.208Z,0.00
2018-06-18T03:34:41.165Z,0.00
2018-06-18T03:35:41.122Z,0.00
2018-06-18T03:36:41.078Z,0.00
2018-06-18T03:37:41.046Z,0.00
2018-06-18T03:38:40.992Z,0.00
2018-06-18T03:39:40.949Z,0.00
2018-06-18T03:40:40.904Z,0.00
2018-06-18T03:41:40.861Z,0.00
2018-06-18T03:42:40.827Z,0.00
2018-06-18T03:43:40.775Z,0.00
2018-06-18T03:44:40.732Z,0.00
2018-06-18T03:45:40.688Z,0.00
2018-06-18T03:46:40.646Z,0.00
2018-06-18T03:47:40.607Z,0.00
2018-06-18T03:48:40.559Z,0.00
2018-06-18T03:49:40.516Z,0.00
2018-06-18T03:50:40.473Z,0.00
2018-06-18T03:51:40.430Z,0.00
2018-06-18T03:52:40.386Z,0.00
2018-06-18T03:53:40.343Z,0.00
2018-06-18T03:54:40.303Z,0.00
2018-06-18T03:55:40.259Z,0.00
2018-06-18T03:56:40.213Z,0.00
2018-06-18T03:57:40.170Z,0.00
2018-06-18T03:58:40.128Z,0.00
2018-06-18T03:59:40.085Z,0.00
2018-06-18T04:00:40.041Z,0.00
2018-06-18T04:01:39.998Z,0.00
2018-06-18T04:02:39.955Z,0.00
2018-06-18T04:03:39.912Z,0.00
2018-06-18T04:04:39.869Z,0.00
2018-06-18T04:05:39.826Z,0.00
2018-06-18T04:06:39.783Z,0.00
2018-06-18T04:07:39.740Z,0.00
2018-06-18T04:08:39.696Z,0.00
2018-06-18T04:09:39.653Z,0.00
2018-06-18T04:10:39.610Z,0.00
2018-06-18T04:11:39.568Z,0.00
2018-06-18T04:12:39.525Z,0.00
2018-06-18T04:13:39.480Z,0.00
2018-06-18T04:14:39.438Z,0.00
2018-06-18T04:15:39.395Z,0.00
2018-06-18T04:16:39.351Z,0.00
2018-06-18T04:17:39.308Z,5.63
2018-06-18T04:18:39.266Z,5.63
2018-06-18T04:19:39.222Z,5.63
2018-06-18T04:20:39.180Z,5.63
2018-06-18T04:21:39.137Z,5.63
2018-06-18T04:22:39.092Z,5.63
2018-06-18T04:23:39.050Z,5.63
2018-06-18T04:24:39.009Z,5.63
2018-06-18T04:25:38.963Z,5.63
2018-06-18T04:26:38.920Z,5.63
2018-06-18T04:27:38.877Z,5.63
2018-06-18T04:28:38.832Z,5.63
2018-06-18T04:29:38.790Z,5.63
2018-06-18T04:30:38.746Z,5.63
2018-06-18T04:31:38.704Z,5.63
2018-06-18T04:32:38.660Z,5.63
2018-06-18T04:33:38.617Z,5.63
2018-06-18T04:34:38.574Z,5.63
2018-06-18T04:35:38.531Z,11.25
2018-06-18T04:36:38.487Z,16.88
2018-06-18T04:37:38.463Z,16.88
2018-06-18T04:38:38.401Z,16.88
2018-06-18T04:39:38.358Z,22.50
2018-06-18T04:40:38.314Z,22.50
2018-06-18T04:41:38.272Z,22.50
2018-06-18T04:42:38.229Z,22.50
2018-06-18T04:43:38.189Z,16.88
2018-06-18T04:44:38.147Z,16.88
2018-06-18T04:45:38.098Z,22.50
2018-06-18T04:46:38.055Z,28.13
2018-06-18T04:47:38.015Z,28.13
2018-06-18T04:48:37.968Z,28.13
2018-06-18T04:49:37.925Z,22.50
2018-06-18T04:50:37.882Z,16.88
2018-06-18T04:51:37.839Z,11.25
2018-06-18T04:52:37.795Z,11.25
2018-06-18T04:53:37.753Z,11.25
2018-06-18T04:54:37.710Z,11.25
2018-06-18T04:55:37.667Z,11.25
2018-06-18T04:56:37.656Z,11.25
2018-06-18T04:57:37.581Z,11.25
2018-06-18T04:58:37.538Z,11.25
2018-06-18T04:59:37.495Z,5.63
2018-06-18T05:00:37.452Z,5.63
2018-06-18T05:01:37.408Z,5.63
2018-06-18T05:02:37.366Z,5.63
2018-06-18T05:03:37.323Z,5.63
2018-06-18T05:04:37.284Z,5.63
2018-06-18T05:05:37.240Z,5.63
2018-06-18T05:06:37.193Z,5.63
2018-06-18T05:07:37.206Z,5.63
2018-06-18T05:08:37.107Z,5.63
2018-06-18T05:09:37.115Z,5.63
2018-06-18T05:10:37.023Z,5.63
2018-06-18T05:11:36.979Z,5.63
2018-06-18T05:12:36.937Z,5.63
2018-06-18T05:13:36.893Z,5.63
2018-06-18T05:14:36.851Z,5.63
2018-06-18T05:15:36.808Z,5.63
2018-06-18T05:16:36.764Z,5.63
2018-06-18T05:17:36.722Z,5.63
2018-06-18T05:18:36.681Z,5.63
2018-06-18T05:19:36.637Z,5.63
2018-06-18T05:20:36.606Z,5.63
2018-06-18T05:21:36.550Z,5.63
2018-06-18T05:22:36.508Z,5.63
2018-06-18T05:23:36.464Z,5.63
2018-06-18T05:24:36.421Z,5.63
2018-06-18T05:25:36.379Z,5.63
2018-06-18T05:26:36.340Z,5.63
2018-06-18T05:27:36.394Z,5.63
2018-06-18T05:28:36.256Z,5.63
2018-06-18T05:29:36.207Z,5.63
2018-06-18T05:30:36.165Z,5.63
2018-06-18T05:31:36.122Z,5.63
2018-06-18T05:32:36.078Z,5.63
2018-06-18T05:33:36.038Z,5.63
2018-06-18T05:34:35.993Z,5.63
2018-06-18T05:35:35.951Z,5.63
2018-06-18T05:36:35.907Z,5.63
2018-06-18T05:37:35.864Z,5.63
2018-06-18T05:38:35.821Z,5.63
2018-06-18T05:39:35.779Z,5.63
2018-06-18T05:40:35.735Z,5.63
2018-06-18T05:41:35.704Z,5.63
2018-06-18T05:42:35.650Z,5.63
2018-06-18T05:43:35.608Z,5.63
2018-06-18T05:44:35.563Z,5.63
2018-06-18T05:45:35.521Z,5.63
2018-06-18T05:46:35.479Z,5.63
2018-06-18T05:47:35.486Z,5.63
2018-06-18T05:48:35.393Z,5.63
2018-06-18T05:49:35.352Z,5.63
2018-06-18T05:50:35.415Z,5.63
2018-06-18T05:51:35.265Z,5.63
2018-06-18T05:52:35.223Z,5.63
2018-06-18T05:53:35.182Z,5.63
2018-06-18T05:54:35.136Z,5.63
2018-06-18T05:55:35.093Z,5.63
2018-06-18T05:56:35.050Z,5.63
2018-06-18T05:57:35.009Z,5.63
2018-06-18T05:58:34.981Z,5.63
2018-06-18T05:59:34.926Z,5.63
2018-06-18T06:00:34.879Z,5.63
2018-06-18T06:01:34.836Z,5.63
2018-06-18T06:02:34.793Z,5.63
2018-06-18T06:03:34.751Z,5.63
2018-06-18T06:04:34.707Z,5.63
2018-06-18T06:05:34.665Z,5.63
2018-06-18T06:06:34.622Z,84.38
2018-06-18T06:07:34.580Z,84.38
2018-06-18T06:08:34.536Z,84.38
2018-06-18T06:09:34.494Z,84.38
2018-06-18T06:10:34.452Z,84.38
2018-06-18T06:11:34.409Z,84.38
2018-06-18T06:12:34.365Z,84.38
2018-06-18T06:13:34.325Z,84.38
2018-06-18T06:14:34.279Z,90.00
2018-06-18T06:15:34.238Z,90.00
2018-06-18T06:16:34.194Z,101.25
2018-06-18T06:17:34.150Z,106.88
2018-06-18T06:18:34.108Z,112.50
2018-06-18T06:19:34.065Z,118.13
2018-06-18T06:20:34.022Z,123.75
2018-06-18T06:21:33.981Z,129.38
2018-06-18T06:22:33.957Z,135.00
2018-06-18T06:23:33.893Z,135.00
2018-06-18T06:24:33.858Z,140.63
2018-06-18T06:25:33.807Z,146.25
2018-06-18T06:26:33.764Z,151.88
2018-06-18T06:27:33.720Z,151.88
2018-06-18T06:28:33.677Z,151.88
2018-06-18T06:29:33.668Z,140.63
2018-06-18T06:30:33.592Z,135.00
2018-06-18T06:31:33.548Z,129.38
2018-06-18T06:32:33.503Z,123.75
2018-06-18T06:33:33.460Z,118.13
2018-06-18T06:34:33.418Z,106.88
2018-06-18T06:35:33.378Z,101.25
2018-06-18T06:36:33.332Z,95.63
2018-06-18T06:37:33.354Z,95.63
2018-06-18T06:38:33.246Z,95.63
2018-06-18T06:39:33.203Z,95.63
2018-06-18T06:40:33.162Z,90.00
2018-06-18T06:41:33.116Z,90.00
2018-06-18T06:42:33.074Z,90.00
2018-06-18T06:43:33.031Z,95.63
2018-06-18T06:44:32.987Z,95.63
2018-06-18T06:45:32.943Z,106.88
2018-06-18T06:46:32.900Z,118.13
2018-06-18T06:47:32.861Z,129.38
2018-06-18T06:48:32.814Z,140.63
2018-06-18T06:49:32.773Z,151.88
2018-06-18T06:50:32.729Z,151.88
2018-06-18T06:51:32.686Z,151.88
2018-06-18T06:52:32.642Z,163.13
2018-06-18T06:53:32.598Z,174.38
2018-06-18T06:54:32.554Z,191.25
2018-06-18T06:55:32.513Z,208.13
2018-06-18T06:56:32.470Z,225.00
2018-06-18T06:57:32.431Z,247.50
2018-06-18T06:58:32.383Z,270.00
2018-06-18T06:59:32.398Z,309.38
2018-06-18T07:00:32.299Z,320.63
2018-06-18T07:01:32.256Z,315.00
2018-06-18T07:02:32.212Z,337.50
2018-06-18T07:03:32.168Z,365.63
2018-06-18T07:04:32.124Z,410.63
2018-06-18T07:05:32.083Z,455.63
2018-06-18T07:06:32.041Z,455.63
2018-06-18T07:07:31.997Z,466.88
2018-06-18T07:08:31.954Z,641.25
2018-06-18T07:09:31.912Z,556.88
2018-06-18T07:10:31.869Z,579.38
2018-06-18T07:11:31.827Z,663.75
2018-06-18T07:12:31.784Z,815.63
2018-06-18T07:13:31.760Z,624.38
2018-06-18T07:14:31.701Z,607.50
2018-06-18T07:15:31.658Z,697.50
2018-06-18T07:16:31.666Z,624.38
2018-06-18T07:17:31.574Z,652.50
2018-06-18T07:18:31.532Z,821.25
2018-06-18T07:19:31.491Z,933.75
2018-06-18T07:20:31.448Z,1057.50
2018-06-18T07:21:31.407Z,1023.75
2018-06-18T07:22:31.374Z,883.13
2018-06-18T07:23:31.326Z,1276.88
2018-06-18T07:24:31.285Z,1192.50
2018-06-18T07:25:31.243Z,1181.25
2018-06-18T07:26:31.204Z,776.25
2018-06-18T07:27:31.164Z,1046.25
2018-06-18T07:28:31.124Z,697.50
2018-06-18T07:29:31.085Z,618.75
2018-06-18T07:30:31.290Z,489.38
2018-06-18T07:31:31.017Z,416.25
2018-06-18T07:32:30.967Z,388.13
2018-06-18T07:33:30.928Z,360.00
2018-06-18T07:34:30.889Z,320.63
2018-06-18T07:35:30.850Z,286.88
2018-06-18T07:36:30.812Z,247.50
2018-06-18T07:37:30.772Z,219.38
2018-06-18T07:38:30.772Z,202.50
2018-06-18T07:39:30.693Z,196.88
2018-06-18T07:40:30.653Z,202.50
2018-06-18T07:41:30.613Z,208.13
2018-06-18T07:42:30.573Z,202.50
2018-06-18T07:43:30.534Z,196.88
2018-06-18T07:44:30.495Z,191.25
2018-06-18T07:45:30.474Z,180.00
2018-06-18T07:46:30.413Z,163.13
2018-06-18T07:47:30.372Z,157.50
2018-06-18T07:48:30.331Z,151.88
2018-06-18T07:49:30.292Z,146.25
2018-06-18T07:50:30.250Z,135.00
2018-06-18T07:51:30.277Z,123.75
2018-06-18T07:52:30.169Z,112.50
2018-06-18T07:53:30.128Z,106.88
2018-06-18T07:54:30.087Z,95.63
2018-06-18T07:55:30.047Z,95.63
2018-06-18T07:56:30.006Z,95.63
2018-06-18T07:57:30.025Z,95.63
2018-06-18T07:58:29.922Z,101.25
2018-06-18T07:59:29.881Z,112.50
2018-06-18T08:00:29.839Z,118.13
2018-06-18T08:01:29.804Z,123.75
2018-06-18T08:02:29.756Z,118.13
2018-06-18T08:03:29.741Z,112.50
2018-06-18T08:04:29.672Z,112.50
2018-06-18T08:05:29.631Z,112.50
2018-06-18T08:06:29.589Z,118.13
2018-06-18T08:07:29.547Z,123.75
2018-06-18T08:08:29.504Z,135.00
2018-06-18T08:09:29.475Z,146.25
2018-06-18T08:10:29.421Z,157.50
2018-06-18T08:11:29.379Z,168.75
2018-06-18T08:12:29.335Z,180.00
2018-06-18T08:13:29.295Z,185.63
2018-06-18T08:14:29.252Z,185.63
2018-06-18T08:15:29.212Z,185.63
2018-06-18T08:16:29.167Z,185.63
2018-06-18T08:17:29.125Z,191.25
2018-06-18T08:18:29.083Z,196.88
2018-06-18T08:19:29.044Z,208.13
2018-06-18T08:20:28.997Z,208.13
2018-06-18T08:21:28.956Z,208.13
2018-06-18T08:22:28.913Z,202.50
2018-06-18T08:23:28.873Z,213.75
2018-06-18T08:24:28.828Z,219.38
2018-06-18T08:25:28.790Z,225.00
2018-06-18T08:26:28.745Z,236.25
2018-06-18T08:27:28.703Z,241.88
2018-06-18T08:28:28.660Z,253.13
2018-06-18T08:29:28.619Z,253.13
2018-06-18T08:30:28.576Z,247.50
2018-06-18T08:31:28.535Z,241.88
2018-06-18T08:32:28.491Z,247.50
2018-06-18T08:33:28.450Z,264.38
2018-06-18T08:34:28.407Z,281.25
2018-06-18T08:35:28.366Z,303.75
2018-06-18T08:36:28.323Z,331.88
2018-06-18T08:37:28.283Z,337.50
2018-06-18T08:38:28.240Z,348.75
2018-06-18T08:39:28.197Z,354.38
2018-06-18T08:40:28.158Z,371.25
2018-06-18T08:41:28.113Z,376.88
2018-06-18T08:42:28.071Z,528.75
2018-06-18T08:43:28.030Z,421.88
2018-06-18T08:44:27.987Z,399.38
2018-06-18T08:45:27.946Z,388.13
2018-06-18T08:46:27.903Z,382.50
2018-06-18T08:47:27.961Z,360.00
2018-06-18T08:48:27.819Z,360.00
2018-06-18T08:49:27.778Z,376.88
2018-06-18T08:50:27.736Z,590.63
2018-06-18T08:51:27.695Z,821.25
2018-06-18T08:52:27.658Z,759.38
2018-06-18T08:53:27.610Z,540.00
2018-06-18T08:54:27.569Z,511.88
2018-06-18T08:55:27.529Z,461.25
2018-06-18T08:56:27.489Z,433.13
2018-06-18T08:57:27.447Z,438.75
2018-06-18T08:58:27.404Z,405.00
2018-06-18T08:59:27.364Z,410.63
2018-06-18T09:00:27.325Z,433.13
2018-06-18T09:01:27.281Z,444.38
2018-06-18T09:02:27.241Z,517.50
2018-06-18T09:03:27.204Z,472.50
2018-06-18T09:04:27.157Z,444.38
2018-06-18T09:05:27.118Z,433.13
2018-06-18T09:06:27.077Z,478.13
2018-06-18T09:07:27.036Z,444.38
2018-06-18T09:08:27.047Z,489.38
2018-06-18T09:09:26.953Z,641.25
2018-06-18T09:10:26.942Z,590.63
2018-06-18T09:11:26.876Z,573.75
2018-06-18T09:12:26.830Z,528.75
2018-06-18T09:13:26.792Z,691.88
2018-06-18T09:14:26.750Z,511.88
2018-06-18T09:15:26.711Z,624.38
2018-06-18T09:16:26.667Z,658.13
2018-06-18T09:17:26.627Z,911.25
2018-06-18T09:18:26.586Z,798.75
2018-06-18T09:19:26.549Z,601.88
2018-06-18T09:20:26.506Z,450.00
2018-06-18T09:21:26.466Z,416.25
2018-06-18T09:22:26.431Z,388.13
2018-06-18T09:23:26.487Z,360.00
2018-06-18T09:24:26.350Z,365.63
2018-06-18T09:25:26.309Z,371.25
2018-06-18T09:26:26.267Z,410.63
2018-06-18T09:27:26.226Z,556.88
2018-06-18T09:28:26.186Z,579.38
2018-06-18T09:29:26.147Z,601.88
2018-06-18T09:30:26.108Z,579.38
2018-06-18T09:31:26.067Z,736.88
2018-06-18T09:32:26.184Z,506.25
2018-06-18T09:33:25.986Z,540.00
2018-06-18T09:34:25.948Z,540.00
2018-06-18T09:35:25.913Z,534.38
2018-06-18T09:36:25.867Z,495.00
2018-06-18T09:37:25.827Z,663.75
2018-06-18T09:38:25.790Z,590.63
2018-06-18T09:39:25.750Z,596.25
2018-06-18T09:40:25.707Z,472.50
2018-06-18T09:41:25.667Z,466.88
2018-06-18T09:42:25.628Z,405.00
2018-06-18T09:43:25.589Z,427.50
2018-06-18T09:44:25.550Z,410.63
2018-06-18T09:45:25.509Z,455.63
2018-06-18T09:46:25.470Z,511.88
2018-06-18T09:47:25.430Z,495.00
2018-06-18T09:48:25.390Z,601.88
2018-06-18T09:49:25.351Z,506.25
2018-06-18T09:50:25.310Z,506.25
2018-06-18T09:51:25.271Z,478.13
2018-06-18T09:52:25.229Z,472.50
2018-06-18T09:53:25.190Z,472.50
2018-06-18T09:54:25.151Z,483.75
2018-06-18T09:55:25.110Z,523.13
2018-06-18T09:56:25.070Z,534.38
2018-06-18T09:57:25.031Z,534.38
2018-06-18T09:58:24.991Z,551.25
2018-06-18T09:59:24.952Z,551.25
2018-06-18T10:00:24.911Z,545.63
2018-06-18T10:01:24.871Z,523.13
2018-06-18T10:02:24.892Z,534.38
2018-06-18T10:03:24.792Z,523.13
2018-06-18T10:04:24.753Z,511.88
2018-06-18T10:05:24.711Z,517.50
2018-06-18T10:06:24.672Z,511.88
2018-06-18T10:07:24.633Z,506.25
2018-06-18T10:08:24.869Z,506.25
2018-06-18T10:09:24.552Z,511.88
2018-06-18T10:10:24.513Z,523.13
2018-06-18T10:11:24.472Z,534.38
2018-06-18T10:12:24.432Z,523.13
2018-06-18T10:13:24.392Z,500.63
2018-06-18T10:14:24.404Z,489.38
2018-06-18T10:15:24.312Z,489.38
2018-06-18T10:16:24.272Z,466.88
2018-06-18T10:17:24.233Z,450.00
2018-06-18T10:18:24.193Z,433.13
2018-06-18T10:19:24.157Z,410.63
2018-06-18T10:20:24.112Z,393.75
2018-06-18T10:21:24.073Z,382.50
2018-06-18T10:22:24.033Z,371.25
2018-06-18T10:23:23.993Z,382.50
2018-06-18T10:24:23.978Z,371.25
2018-06-18T10:25:23.913Z,382.50
2018-06-18T10:26:23.873Z,376.88
2018-06-18T10:27:23.837Z,371.25
2018-06-18T10:28:23.792Z,365.63
2018-06-18T10:29:23.753Z,376.88
2018-06-18T10:30:23.712Z,382.50
2018-06-18T10:31:23.672Z,393.75
2018-06-18T10:32:23.634Z,393.75
2018-06-18T10:33:23.596Z,376.88
2018-06-18T10:34:23.551Z,371.25
2018-06-18T10:35:23.511Z,393.75
2018-06-18T10:36:23.469Z,376.88
2018-06-18T10:37:23.429Z,376.88
2018-06-18T10:38:23.389Z,371.25
2018-06-18T10:39:23.353Z,382.50
2018-06-18T10:40:23.308Z,360.00
2018-06-18T10:41:23.291Z,337.50
2018-06-18T10:42:23.227Z,331.88
2018-06-18T10:43:23.191Z,348.75
2018-06-18T10:44:23.148Z,326.25
2018-06-18T10:45:23.105Z,298.13
2018-06-18T10:46:23.066Z,270.00
2018-06-18T10:47:23.026Z,225.00
2018-06-18T10:48:22.984Z,208.13
2018-06-18T10:49:22.944Z,191.25
2018-06-18T10:50:22.904Z,191.25
2018-06-18T10:51:22.864Z,191.25
2018-06-18T10:52:22.826Z,191.25
2018-06-18T10:53:22.831Z,185.63
2018-06-18T10:54:22.740Z,180.00
2018-06-18T10:55:22.701Z,191.25
2018-06-18T10:56:22.659Z,185.63
2018-06-18T10:57:22.620Z,202.50
2018-06-18T10:58:22.577Z,225.00
2018-06-18T10:59:22.537Z,213.75
2018-06-18T11:00:22.496Z,253.13
2018-06-18T11:01:22.454Z,247.50
2018-06-18T11:02:22.413Z,236.25
2018-06-18T11:03:22.377Z,230.63
2018-06-18T11:04:22.331Z,241.88
2018-06-18T11:05:22.292Z,270.00
2018-06-18T11:06:22.249Z,247.50
2018-06-18T11:07:22.207Z,241.88
2018-06-18T11:08:22.165Z,247.50
2018-06-18T11:09:22.125Z,236.25
2018-06-18T11:10:22.084Z,225.00
2018-06-18T11:11:22.042Z,213.75
2018-06-18T11:12:22.000Z,196.88
2018-06-18T11:13:21.958Z,180.00
2018-06-18T11:14:21.919Z,180.00
2018-06-18T11:15:21.878Z,185.63
2018-06-18T11:16:21.990Z,185.63
2018-06-18T11:17:22.134Z,185.63
2018-06-18T11:18:21.757Z,185.63
2018-06-18T11:19:21.714Z,185.63
2018-06-18T11:20:21.669Z,191.25
2018-06-18T11:21:21.630Z,191.25
2018-06-18T11:22:21.589Z,202.50
2018-06-18T11:23:21.548Z,213.75
2018-06-18T11:24:21.510Z,230.63
2018-06-18T11:25:21.490Z,230.63
2018-06-18T11:26:21.480Z,236.25
2018-06-18T11:27:21.416Z,241.88
2018-06-18T11:28:21.386Z,247.50
2018-06-18T11:29:21.300Z,264.38
2018-06-18T11:30:21.259Z,281.25
2018-06-18T11:31:21.284Z,286.88
2018-06-18T11:32:21.249Z,286.88
2018-06-18T11:33:21.149Z,286.88
2018-06-18T11:34:21.093Z,286.88
2018-06-18T11:35:21.052Z,292.50
2018-06-18T11:36:21.010Z,292.50
2018-06-18T11:37:20.969Z,292.50
2018-06-18T11:38:20.931Z,281.25
2018-06-18T11:39:20.997Z,275.63
2018-06-18T11:40:20.845Z,281.25
2018-06-18T11:41:20.803Z,281.25
2018-06-18T11:42:20.843Z,275.63
2018-06-18T11:43:20.758Z,270.00
2018-06-18T11:44:20.681Z,270.00
2018-06-18T11:45:20.640Z,275.63
2018-06-18T11:46:20.599Z,270.00
2018-06-18T11:47:20.558Z,275.63
2018-06-18T11:48:20.549Z,286.88
2018-06-18T11:49:20.482Z,298.13
2018-06-18T11:50:20.470Z,315.00
2018-06-18T11:51:20.394Z,309.38
2018-06-18T11:52:20.352Z,303.75
2018-06-18T11:53:20.310Z,303.75
2018-06-18T11:54:20.294Z,303.75
2018-06-18T11:55:20.229Z,303.75
2018-06-18T11:56:20.192Z,298.13
2018-06-18T11:57:20.147Z,292.50
2018-06-18T11:58:20.169Z,292.50
2018-06-18T11:59:20.065Z,286.88
2018-06-18T12:00:20.026Z,298.13
2018-06-18T12:01:19.996Z,298.13
2018-06-18T12:02:19.942Z,298.13
2018-06-18T12:03:19.901Z,303.75
2018-06-18T12:04:19.858Z,292.50
2018-06-18T12:05:19.818Z,292.50
2018-06-18T12:06:19.777Z,281.25
2018-06-18T12:07:19.798Z,264.38
2018-06-18T12:08:19.696Z,247.50
2018-06-18T12:09:19.695Z,230.63
2018-06-18T12:10:19.614Z,213.75
2018-06-18T12:11:19.576Z,202.50
2018-06-18T12:12:19.531Z,191.25
2018-06-18T12:13:19.591Z,196.88
2018-06-18T12:14:19.451Z,208.13
2018-06-18T12:15:19.408Z,213.75
2018-06-18T12:16:19.367Z,225.00
2018-06-18T12:17:19.327Z,219.38
2018-06-18T12:18:19.286Z,208.13
2018-06-18T12:19:19.244Z,185.63
2018-06-18T12:20:19.203Z,174.38
2018-06-18T12:21:19.162Z,185.63
2018-06-18T12:22:19.254Z,180.00
2018-06-18T12:23:19.079Z,168.75
2018-06-18T12:24:19.038Z,174.38
2018-06-18T12:25:18.997Z,185.63
2018-06-18T12:26:18.956Z,180.00
2018-06-18T12:27:18.915Z,180.00
2018-06-18T12:28:18.874Z,180.00
2018-06-18T12:29:18.832Z,185.63
2018-06-18T12:30:18.791Z,174.38
2018-06-18T12:31:18.753Z,180.00
2018-06-18T12:32:18.707Z,191.25
2018-06-18T12:33:18.667Z,196.88
2018-06-18T12:34:18.630Z,202.50
2018-06-18T12:35:18.610Z,213.75
2018-06-18T12:36:18.542Z,219.38
2018-06-18T12:37:18.504Z,219.38
2018-06-18T12:38:18.460Z,219.38
2018-06-18T12:39:18.419Z,213.75
2018-06-18T12:40:18.376Z,202.50
2018-06-18T12:41:18.420Z,191.25
2018-06-18T12:42:18.293Z,180.00
2018-06-18T12:43:18.253Z,174.38
2018-06-18T12:44:18.211Z,174.38
2018-06-18T12:45:18.171Z,180.00
2018-06-18T12:46:18.128Z,185.63
2018-06-18T12:47:18.089Z,180.00
2018-06-18T12:48:18.045Z,180.00
2018-06-18T12:49:18.005Z,180.00
2018-06-18T12:50:17.964Z,174.38
2018-06-18T12:51:17.922Z,174.38